Flight Track Log - Related Links

Times and Time Zones

All times are in EDT time to prevent confusion due to time zone crossing. See the UAL4849 flight status page for this flight to view local times or setup timezone preferences in your user account.

Time Position Orientation Groundspeed Altitude Reporting Facility
EDT Latitude Longitude Course Direction KTS MPH feet Rate Location/Type
Sun 02:19:51 PM 39.1833 -76.7167 322° Northwest 146 168 1,600  Level Potomac TRACON
Sun 02:20:51 PM 39.2167 -76.7500 322° Northwest 152 175 3,400 1,587 Climbing Potomac TRACON
Sun 02:21:52 PM 39.2500 -76.7833 322° Northwest 162 186 4,800 1,438 Climbing Potomac TRACON
Sun 02:22:52 PM 39.2833 -76.8333 311° West 172 198 6,300 1,488 Climbing Potomac TRACON
Sun 02:23:53 PM 39.2833 -76.9000 270° West 170 196 7,800 1,346 Climbing Potomac TRACON
Sun 02:25:28 PM 39.3033 -76.9864 287° West 172 198 9,800 1,316 Climbing Washington Center
Sun 02:26:28 PM 39.3172 -77.0456 287° West 172 198 11,200 1,350 Climbing Washington Center
Sun 02:27:28 PM 39.3353 -77.0997 293° West 172 198 12,500 1,200 Climbing Washington Center
Sun 02:28:28 PM 39.3725 -77.1381 321° Northwest 166 191 13,600 1,100 Climbing Washington Center
Sun 02:29:28 PM 39.4094 -77.1817 318° Northwest 166 191 14,700 1,100 Climbing Washington Center
Sun 02:30:28 PM 39.4464 -77.2256 317° Northwest 172 198 15,800 1,050 Climbing Washington Center
Sun 02:31:28 PM 39.4811 -77.2694 316° Northwest 177 204 16,800 950 Climbing Washington Center
Sun 02:32:28 PM 39.5053 -77.3236 300° West 177 204 17,700 496 Climbing Washington Center
Sun 02:33:29 PM 39.5294 -77.3836 298° West 183 211 17,800 150 Climbing Washington Center
Sun 02:34:28 PM 39.5578 -77.4489 299° West 189 217 18,000 101 Climbing Washington Center
Sun 02:35:28 PM 39.5900 -77.5222 300° West 217 250 18,000  Level Washington Center
Sun 02:36:28 PM 39.6239 -77.6014 299° West 238 274 18,000  Level Washington Center
Sun 02:37:28 PM 39.6581 -77.6806 299° West 250 288 18,000  Level Washington Center
Sun 02:38:28 PM 39.6942 -77.7625 300° West 250 288 18,000  Level Washington Center
Sun 02:40:40 PM 39.7739 -77.9386 301° West 252 290 18,000  Level Cleveland Center
Sun 02:41:40 PM 39.8069 -78.0211 298° West 257 296 18,000  Level Cleveland Center
Sun 02:42:40 PM 39.8422 -78.1036 299° West 262 302 18,000  Level Cleveland Center
Sun 02:43:40 PM 39.8894 -78.1722 312° West 262 302 18,000  Level Cleveland Center
Sun 02:44:40 PM 39.9347 -78.2439 310° West 262 302 18,000  Level Cleveland Center
Sun 02:45:40 PM 39.9800 -78.3181 309° West 262 302 18,000  Level Cleveland Center
Sun 02:46:40 PM 40.0272 -78.3925 310° West 267 307 18,000  Level Cleveland Center
Sun 02:47:40 PM 40.0744 -78.4642 311° West 267 307 18,000  Level Cleveland Center
Sun 02:48:40 PM 40.1217 -78.5331 312° West 267 307 18,000  Level Cleveland Center
Sun 02:49:40 PM 40.1667 -78.6053 309° West 267 307 18,000  Level Cleveland Center
Sun 02:50:40 PM 40.2139 -78.6772 311° West 267 307 18,000  Level Cleveland Center
Sun 02:51:40 PM 40.2589 -78.7494 309° West 267 307 18,000  Level Cleveland Center
Sun 02:52:40 PM 40.3058 -78.8217 310° West 267 307 18,000  Level Cleveland Center
Sun 02:53:40 PM 40.3508 -78.8967 308° West 267 307 18,000  Level Cleveland Center
Sun 02:54:40 PM 40.3914 -78.9719 305° West 267 307 18,000  Level Cleveland Center
Sun 02:55:40 PM 40.4361 -79.0472 308° West 267 307 18,000  Level Cleveland Center
Sun 02:56:40 PM 40.4789 -79.1228 307° West 267 307 18,000  Level Cleveland Center
Sun 02:57:40 PM 40.5194 -79.1983 305° West 261 300 18,000  Level Cleveland Center
Sun 02:58:40 PM 40.5619 -79.2739 307° West 261 300 18,000  Level Cleveland Center
Sun 02:59:40 PM 40.6067 -79.3497 308° West 261 300 18,000  Level Cleveland Center
Sun 03:01:40 PM 40.6917 -79.5014 307° West 261 300 18,000  Level Cleveland Center
Sun 03:02:40 PM 40.7339 -79.5775 306° West 261 300 18,000  Level Cleveland Center
Sun 03:03:40 PM 40.7764 -79.6536 306° West 261 300 18,000  Level Cleveland Center
Sun 03:04:40 PM 40.8186 -79.7297 306° West 261 300 18,000 50 Level Cleveland Center
Sun 03:05:40 PM 40.8608 -79.8089 305° West 261 300 18,100  Climbing Cleveland Center
Sun 03:06:40 PM 40.9031 -79.8825 307° West 261 300 18,000 -50 Descending Cleveland Center
Sun 03:07:40 PM 40.9453 -79.9592 306° West 261 300 18,000  Level Cleveland Center
Sun 03:08:40 PM 40.9872 -80.0386 305° West 261 300 18,000  Level Cleveland Center
Sun 03:09:40 PM 41.0294 -80.1181 305° West 261 300 18,000  Level Cleveland Center
Sun 03:10:40 PM 41.0714 -80.1947 306° West 261 300 18,000  Level Cleveland Center
Sun 03:11:40 PM 41.1153 -80.2744 306° West 261 300 18,000  Level Cleveland Center
Sun 03:12:40 PM 41.1614 -80.3597 306° West 261 300 18,000  Level Cleveland Center
Sun 03:13:40 PM 41.1989 -80.4314 305° West 261 300 18,000 -250 Level Cleveland Center
Sun 03:14:40 PM 41.2428 -80.5142 305° West 266 306 17,500 -800 Descending Cleveland Center
Sun 03:15:40 PM 41.2889 -80.5969 307° West 271 312 16,400 -1,250 Descending Cleveland Center
Sun 03:16:40 PM 41.3344 -80.6828 305° West 283 326 15,000 -1,450 Descending Cleveland Center
Sun 03:18:09 PM 41.3906 -80.8350 296° West 283 326 12,800 -1,400 Descending Cleveland Center
Sun 03:18:40 PM 41.4050 -80.8711 298° West 283 326 12,200 -1,377 Descending Cleveland Center
Sun 03:19:10 PM 41.4278 -80.9292 298° West 284 327 11,400 -1,400 Descending Cleveland Center
Sun 03:19:40 PM 41.4403 -80.9653 295° West 278 320 10,800 -1,377 Descending Cleveland Center
Sun 03:20:11 PM 41.4589 -81.0208 294° West 276 318 10,000 -1,400 Descending Cleveland Center
Sun 03:20:40 PM 41.4775 -81.0625 301° West 278 320 9,400 -1,000 Descending Cleveland Center
Sun 03:21:11 PM 41.4961 -81.1100 298° West 274 315 9,000 -400 Descending Cleveland Center
Sun 03:21:40 PM 41.5125 -81.1544 296° West 278 320 9,000  Level Cleveland Center
Sun 03:22:12 PM 41.5081 -81.2042 263° West 262 302 9,000  Level Cleveland Center
Sun 03:22:40 PM 41.5056 -81.2486 266° West 258 297 9,000  Level Cleveland Center
Sun 03:23:13 PM 41.4969 -81.2983 257° West 259 298 9,000  Level Cleveland Center
Sun 03:23:40 PM 41.4925 -81.3428 262° West 253 291 9,000 -492 Level Cleveland Center
Sun 03:24:14 PM 41.4839 -81.4008 259° West 264 304 8,500 -800 Descending Cleveland Center
Sun 03:24:40 PM 41.4794 -81.4394 261° West 258 297 8,200 -885 Descending Cleveland Center
Sun 03:25:15 PM 41.4706 -81.5031 259° West 278 320 7,600 -900 Descending Cleveland Center
Sun 03:25:40 PM 41.4661 -81.5392 261° West 270 311 7,300 -600 Descending Cleveland Center
Sun 03:26:15 PM 41.4511 -81.5969 251° West 266 306 7,000 -300 Descending Cleveland Center
Sun 03:26:40 PM 41.4422 -81.6331 252° West 275 316 7,000  Level Cleveland Center
Sun 03:27:16 PM 41.4253 -81.6853 247° West 257 296 7,000  Level Cleveland Center
Sun 03:28:17 PM 41.3889 -81.7733 241° Southwest 256 295 7,000 -492 Level Cleveland Center
Sun 03:29:18 PM 41.3403 -81.8414 226° Southwest 259 298 6,000 -1,131 Descending Cleveland Center
Sun 03:30:19 PM 41.3019 -81.9153 235° Southwest 250 288 4,700 -1,438 Descending Cleveland Center
Sun 03:31:19 PM 41.3431 -81.9633 319° Northwest 207 238 3,100 -1,388 Descending Cleveland Center
Sun 03:32:20 PM 41.3664 -81.9278 49° Northeast 98 113 1,900 -934 Descending Cleveland Center
Sun 03:33:21 PM 41.3875 -81.8950 49° Northeast 111 128 1,200 -689 Descending Cleveland Center

Login

Don't have an account? Register now (free) for customized features, flight alerts, and more!